Abaiang Airport


Codes: NGAB/ABF
Name: Abaiang Airport
City: Abaiang
Country: Kiribati
Elevation: 0 ft.

Photos at Abaiang Airport


   Photos courtesy of SpottingLog. You can add your own sightings and photos by signing up for a free trial today.



No photos found.

Weather at Abaiang Airport


Time (UTC)DescriptionTempratureWindCloud coverageVisibilityPressureHumidity
18-Apr-2024 00:00Few Clouds29°C9 mph, E20%10000m1010hPa75%
18-Apr-2024 03:00Broken Clouds29°C9 mph, E59%10000m1007hPa75%
18-Apr-2024 06:00Light Rain29°C9 mph, E90%10000m1007hPa76%
18-Apr-2024 09:00Light Rain29°C11 mph, E100%10000m1009hPa78%
18-Apr-2024 12:00Light Rain29°C11 mph, E100%10000m1009hPa79%
18-Apr-2024 15:00Light Rain28°C11 mph, E67%10000m1007hPa79%
18-Apr-2024 18:00Light Rain28°C11 mph, E73%10000m1008hPa80%
18-Apr-2024 21:00Light Rain28°C13 mph, E42%10000m1009hPa80%
19-Apr-2024 00:00Light Rain28°C13 mph, E33%10000m1009hPa79%
19-Apr-2024 03:00Light Rain28°C11 mph, E58%10000m1007hPa80%
19-Apr-2024 06:00Light Rain29°C13 mph, E59%10000m1008hPa79%
19-Apr-2024 09:00Light Rain29°C13 mph, E74%10000m1009hPa78%
19-Apr-2024 12:00Light Rain28°C13 mph, E87%6740m1009hPa80%
19-Apr-2024 15:00Light Rain28°C13 mph, E100%10000m1008hPa78%
19-Apr-2024 18:00Light Rain28°C11 mph, E100%10000m1009hPa79%
19-Apr-2024 21:00Light Rain29°C11 mph, SE91%10000m1011hPa79%
20-Apr-2024 00:00Light Rain29°C11 mph, SE72%10000m1009hPa77%
20-Apr-2024 03:00Light Rain29°C11 mph, SE48%10000m1007hPa78%
20-Apr-2024 06:00Light Rain29°C9 mph, E58%10000m1008hPa78%
20-Apr-2024 09:00Moderate Rain28°C11 mph, E77%6578m1010hPa82%
20-Apr-2024 12:00Moderate Rain28°C9 mph, E87%10000m1010hPa76%
20-Apr-2024 15:00Light Rain29°C9 mph, NE100%10000m1008hPa75%
20-Apr-2024 18:00Light Rain29°C9 mph, E99%10000m1009hPa75%
20-Apr-2024 21:00Light Rain28°C9 mph, E84%10000m1010hPa77%
21-Apr-2024 00:00Light Rain29°C7 mph, NE81%10000m1009hPa73%
21-Apr-2024 03:00Overcast Clouds29°C7 mph, NE87%10000m1007hPa72%
21-Apr-2024 06:00Light Rain29°C9 mph, NE75%10000m1008hPa74%
21-Apr-2024 09:00Light Rain29°C11 mph, NE63%10000m1010hPa73%
21-Apr-2024 12:00Broken Clouds29°C13 mph, NE65%10000m1009hPa74%
21-Apr-2024 15:00Broken Clouds29°C13 mph, NE84%10000m1007hPa75%
21-Apr-2024 18:00Light Rain28°C13 mph, NE89%10000m1008hPa77%
21-Apr-2024 21:00Light Rain28°C13 mph, E86%10000m1010hPa78%
22-Apr-2024 00:00Light Rain28°C13 mph, E74%10000m1009hPa77%
22-Apr-2024 03:00Light Rain28°C11 mph, E19%10000m1007hPa78%
22-Apr-2024 06:00Light Rain29°C11 mph, E36%4703m1008hPa79%
22-Apr-2024 09:00Moderate Rain29°C13 mph, E94%10000m1010hPa76%
22-Apr-2024 12:00Light Rain29°C11 mph, E94%10000m1009hPa77%
22-Apr-2024 15:00Light Rain28°C11 mph, E55%10000m1007hPa78%
22-Apr-2024 18:00Moderate Rain28°C7 mph, E57%4829m1008hPa81%
22-Apr-2024 21:00Moderate Rain28°C11 mph, E91%5042m1011hPa80%